createdAt,value
2018-05-10T00:01:54.800Z,9.90
2018-05-10T00:04:22.320Z,9.90
2018-05-10T00:06:49.840Z,9.90
2018-05-10T00:09:18.147Z,9.90
2018-05-10T00:11:45.659Z,9.90
2018-05-10T00:14:13.979Z,9.80
2018-05-10T00:16:41.492Z,9.80
2018-05-10T00:19:09.780Z,9.70
2018-05-10T00:21:38.071Z,9.60
2018-05-10T00:24:05.595Z,9.60
2018-05-10T00:26:33.138Z,9.60
2018-05-10T00:29:00.654Z,9.50
2018-05-10T00:31:28.193Z,9.40
2018-05-10T00:33:55.711Z,9.40
2018-05-10T00:36:23.216Z,9.30
2018-05-10T00:38:50.736Z,9.30
2018-05-10T00:41:18.248Z,9.20
2018-05-10T00:43:45.799Z,9.10
2018-05-10T00:46:13.319Z,9.10
2018-05-10T00:48:40.873Z,9.00
2018-05-10T00:51:08.476Z,9.00
2018-05-10T00:53:35.942Z,8.90
2018-05-10T00:56:03.474Z,8.90
2018-05-10T00:58:31.740Z,8.80
2018-05-10T01:00:59.276Z,8.80
2018-05-10T01:03:26.777Z,8.80
2018-05-10T01:05:54.322Z,8.80
2018-05-10T01:08:22.597Z,8.80
2018-05-10T01:10:50.892Z,8.90
2018-05-10T01:13:18.423Z,8.80
2018-05-10T01:15:46.704Z,8.90
2018-05-10T01:18:15.002Z,8.90
2018-05-10T01:20:42.523Z,8.80
2018-05-10T01:23:10.036Z,8.80
2018-05-10T01:25:37.578Z,8.70
2018-05-10T01:28:05.095Z,8.70
2018-05-10T01:30:32.643Z,8.60
2018-05-10T01:33:00.154Z,8.50
2018-05-10T01:35:40.354Z,8.40
2018-05-10T01:38:07.860Z,8.30
2018-05-10T01:40:36.161Z,8.30
2018-05-10T01:43:03.687Z,8.30
2018-05-10T01:45:31.222Z,8.20
2018-05-10T01:47:58.751Z,8.20
2018-05-10T01:50:26.275Z,8.10
2018-05-10T01:52:54.554Z,8.00
2018-05-10T01:55:22.851Z,8.00
2018-05-10T01:57:50.396Z,8.00
2018-05-10T02:00:17.895Z,8.00
2018-05-10T02:02:45.420Z,7.90
2018-05-10T02:05:12.944Z,7.90
2018-05-10T02:07:40.447Z,7.80
2018-05-10T02:10:07.969Z,7.70
2018-05-10T02:12:35.468Z,7.60
2018-05-10T02:15:03.000Z,7.50
2018-05-10T02:17:31.299Z,7.40
2018-05-10T02:19:58.811Z,7.40
2018-05-10T02:22:26.341Z,7.30
2018-05-10T02:24:53.855Z,7.30
2018-05-10T02:27:22.152Z,7.30
2018-05-10T02:29:49.668Z,7.30
2018-05-10T02:32:18.005Z,7.20
2018-05-10T02:34:45.505Z,7.20
2018-05-10T02:37:13.808Z,7.20
2018-05-10T02:39:41.337Z,7.20
2018-05-10T02:42:08.836Z,7.20
2018-05-10T02:44:36.360Z,7.10
2018-05-10T02:47:04.637Z,7.00
2018-05-10T02:49:32.925Z,7.00
2018-05-10T02:52:01.199Z,7.10
2018-05-10T02:54:29.464Z,7.30
2018-05-10T02:56:57.771Z,7.50
2018-05-10T02:59:25.273Z,7.40
2018-05-10T03:01:52.818Z,7.50
2018-05-10T03:04:20.313Z,7.50
2018-05-10T03:06:47.844Z,7.40
2018-05-10T03:09:15.353Z,7.30
2018-05-10T03:11:43.621Z,7.20
2018-05-10T03:14:11.927Z,7.20
2018-05-10T03:16:39.454Z,7.20
2018-05-10T03:19:07.722Z,7.20
2018-05-10T03:21:36.021Z,7.20
2018-05-10T03:24:03.523Z,7.20
2018-05-10T03:26:31.043Z,7.30
2018-05-10T03:28:58.548Z,7.30
2018-05-10T03:31:26.080Z,7.40
2018-05-10T03:33:53.600Z,7.60
2018-05-10T03:36:21.887Z,7.70
2018-05-10T03:38:49.428Z,7.70
2018-05-10T03:41:16.928Z,7.70
2018-05-10T03:43:44.437Z,7.50
2018-05-10T03:46:11.970Z,7.40
2018-05-10T03:48:39.472Z,7.30
2018-05-10T03:51:07.784Z,7.10
2018-05-10T03:53:35.291Z,7.10
2018-05-10T03:56:02.796Z,7.10
2018-05-10T03:58:30.330Z,7.10
2018-05-10T04:00:58.608Z,7.20
2018-05-10T04:03:38.636Z,7.30
2018-05-10T04:06:18.067Z,7.30
2018-05-10T04:11:48.845Z,7.50
2018-05-10T04:14:17.140Z,7.70
2018-05-10T04:16:44.643Z,7.60
2018-05-10T04:19:12.203Z,7.80
2018-05-10T04:21:39.720Z,8.00
2018-05-10T04:24:07.224Z,8.00
2018-05-10T04:26:34.750Z,8.10
2018-05-10T04:29:02.268Z,8.20
2018-05-10T04:31:29.816Z,8.20
2018-05-10T04:33:57.337Z,8.30
2018-05-10T04:36:24.856Z,8.30
2018-05-10T04:38:53.149Z,8.40
2018-05-10T04:41:20.658Z,8.40
2018-05-10T04:43:48.195Z,8.50
2018-05-10T04:46:15.717Z,8.60
2018-05-10T04:48:43.272Z,8.60
2018-05-10T04:51:10.777Z,8.60
2018-05-10T04:53:38.292Z,8.70
2018-05-10T04:56:05.818Z,8.70
2018-05-10T04:58:33.327Z,8.70
2018-05-10T05:01:00.877Z,8.70
2018-05-10T05:03:28.437Z,8.70
2018-05-10T05:05:55.931Z,8.70
2018-05-10T05:08:23.464Z,8.70
2018-05-10T05:10:51.001Z,8.70
2018-05-10T05:13:18.549Z,8.70
2018-05-10T05:15:46.836Z,8.80
2018-05-10T05:18:14.339Z,8.80
2018-05-10T05:20:41.884Z,8.80
2018-05-10T05:23:09.384Z,8.80
2018-05-10T05:25:36.909Z,8.70
2018-05-10T05:28:04.409Z,8.70
2018-05-10T05:30:31.958Z,8.80
2018-05-10T05:32:59.504Z,9.00
2018-05-10T05:35:27.082Z,9.20
2018-05-10T05:37:54.533Z,9.30
2018-05-10T05:40:22.852Z,9.80
2018-05-10T05:42:50.378Z,9.70
2018-05-10T05:45:18.657Z,10.10
2018-05-10T05:47:46.950Z,10.20
2018-05-10T05:50:14.479Z,10.30
2018-05-10T05:52:42.003Z,10.50
2018-05-10T05:55:09.514Z,10.70
2018-05-10T05:57:37.799Z,11.10
2018-05-10T06:00:06.127Z,11.30
2018-05-10T06:02:33.649Z,11.30
2018-05-10T06:05:01.170Z,11.50
2018-05-10T06:07:28.697Z,11.60
2018-05-10T06:09:56.223Z,11.70
2018-05-10T06:12:23.740Z,11.90
2018-05-10T06:14:51.254Z,12.10
2018-05-10T06:17:18.786Z,12.30
2018-05-10T06:19:47.066Z,12.70
2018-05-10T06:22:14.597Z,12.60
2018-05-10T06:24:42.202Z,12.90
2018-05-10T06:27:09.659Z,13.10
2018-05-10T06:29:37.184Z,13.20
2018-05-10T06:32:05.508Z,13.60
2018-05-10T06:34:33.010Z,13.50
2018-05-10T06:37:00.518Z,13.70
2018-05-10T06:39:28.065Z,13.90
2018-05-10T06:41:55.583Z,14.00
2018-05-10T06:44:23.112Z,14.20
2018-05-10T06:46:50.719Z,14.40
2018-05-10T06:49:18.166Z,14.80
2018-05-10T06:51:45.678Z,15.20
2018-05-10T06:54:13.208Z,15.60
2018-05-10T06:56:41.485Z,16.40
2018-05-10T06:59:08.990Z,16.40
2018-05-10T07:01:36.516Z,16.70
2018-05-10T07:04:04.072Z,17.00
2018-05-10T07:06:31.582Z,17.30
2018-05-10T07:08:59.129Z,17.40
2018-05-10T07:11:26.641Z,17.60
2018-05-10T07:13:54.194Z,18.10
2018-05-10T07:16:22.494Z,18.50
2018-05-10T07:18:49.992Z,18.50
2018-05-10T07:21:17.532Z,18.50
2018-05-10T07:23:45.052Z,18.40
2018-05-10T07:26:12.574Z,18.50
2018-05-10T07:28:40.118Z,18.60
2018-05-10T07:31:08.419Z,18.50
2018-05-10T07:33:35.928Z,18.50
2018-05-10T07:36:03.453Z,18.40
2018-05-10T07:38:32.602Z,18.20
2018-05-10T07:41:00.134Z,18.20
2018-05-10T07:43:27.644Z,18.10
2018-05-10T07:45:55.184Z,18.00
2018-05-10T07:48:22.715Z,18.00
2018-05-10T07:50:50.240Z,18.10
2018-05-10T07:53:18.831Z,18.30
2018-05-10T07:55:47.115Z,18.30
2018-05-10T07:58:14.657Z,18.20
2018-05-10T08:00:42.950Z,18.30
2018-05-10T08:03:10.474Z,18.30
2018-05-10T08:05:37.987Z,18.40
2018-05-10T08:08:05.503Z,18.50
2018-05-10T08:10:33.818Z,18.40
2018-05-10T08:13:01.321Z,18.40
2018-05-10T08:15:28.847Z,18.40
2018-05-10T08:17:56.378Z,18.40
2018-05-10T08:20:23.898Z,18.40
2018-05-10T08:22:51.400Z,18.40
2018-05-10T08:25:18.921Z,18.40
2018-05-10T08:27:46.445Z,18.50
2018-05-10T08:30:14.045Z,18.50
2018-05-10T08:32:41.520Z,18.50
2018-05-10T08:35:09.794Z,18.60
2018-05-10T08:37:38.071Z,18.60
2018-05-10T08:40:05.591Z,18.60
2018-05-10T08:42:33.891Z,18.70
2018-05-10T08:45:02.202Z,18.70
2018-05-10T08:47:30.464Z,18.80
2018-05-10T08:49:58.821Z,18.90
2018-05-10T08:52:26.344Z,18.90
2018-05-10T08:54:53.864Z,19.10
2018-05-10T08:57:22.155Z,19.50
2018-05-10T08:59:49.685Z,19.50
2018-05-10T09:02:17.985Z,20.40
2018-05-10T09:04:45.497Z,20.40
2018-05-10T09:07:13.014Z,20.60
2018-05-10T09:09:40.557Z,20.90
2018-05-10T09:12:08.055Z,21.00
2018-05-10T09:14:35.610Z,21.00
2018-05-10T09:17:03.120Z,20.90
2018-05-10T09:19:31.417Z,20.40
2018-05-10T09:21:58.954Z,20.40
2018-05-10T09:24:27.234Z,20.00
2018-05-10T09:26:54.810Z,19.90
2018-05-10T09:29:22.315Z,19.90
2018-05-10T09:31:49.828Z,19.80
2018-05-10T09:34:18.113Z,19.80
2018-05-10T09:36:45.641Z,19.70
2018-05-10T09:39:13.947Z,20.00
2018-05-10T09:41:41.457Z,20.00
2018-05-10T09:44:08.960Z,20.20
2018-05-10T09:46:37.252Z,20.60
2018-05-10T09:49:04.762Z,20.70
2018-05-10T09:51:33.064Z,21.00
2018-05-10T09:54:00.577Z,21.00
2018-05-10T09:56:28.076Z,21.10
2018-05-10T09:58:55.597Z,21.30
2018-05-10T10:01:23.110Z,21.50
2018-05-10T10:03:50.645Z,21.60
2018-05-10T10:06:18.991Z,21.90
2018-05-10T10:08:46.454Z,21.80
2018-05-10T10:11:14.012Z,21.90
2018-05-10T10:13:41.559Z,21.80
2018-05-10T10:16:09.417Z,21.80
2018-05-10T10:18:36.980Z,21.70
2018-05-10T10:21:04.575Z,21.70
2018-05-10T10:23:32.851Z,21.80
2018-05-10T10:26:01.184Z,21.80
2018-05-10T10:28:28.688Z,21.80
2018-05-10T10:30:56.989Z,21.70
2018-05-10T10:33:24.519Z,21.70
2018-05-10T10:35:52.787Z,21.80
2018-05-10T10:38:20.360Z,21.80
2018-05-10T10:40:47.882Z,21.70
2018-05-10T10:43:15.583Z,21.60
2018-05-10T10:45:43.902Z,21.30
2018-05-10T10:48:11.406Z,21.30
2018-05-10T10:50:39.719Z,21.10
2018-05-10T10:53:07.224Z,21.00
2018-05-10T10:55:34.744Z,21.00
2018-05-10T10:58:02.261Z,21.00
2018-05-10T11:00:29.766Z,20.90
2018-05-10T11:02:57.298Z,20.90
2018-05-10T11:05:25.582Z,20.70
2018-05-10T11:07:53.105Z,20.60
2018-05-10T11:10:20.627Z,20.60
2018-05-10T11:12:48.139Z,20.50
2018-05-10T11:15:16.415Z,20.30
2018-05-10T11:17:44.679Z,20.20
2018-05-10T11:20:12.205Z,20.20
2018-05-10T11:22:40.542Z,20.20
2018-05-10T11:25:08.057Z,20.20
2018-05-10T11:27:35.569Z,20.20
2018-05-10T11:30:03.087Z,20.20
2018-05-10T11:32:30.704Z,20.20
2018-05-10T11:34:58.208Z,20.40
2018-05-10T11:37:26.534Z,20.40
2018-05-10T11:39:54.033Z,20.40
2018-05-10T11:42:21.543Z,20.40
2018-05-10T11:44:49.079Z,20.30
2018-05-10T11:47:17.345Z,20.40
2018-05-10T11:49:45.653Z,20.60
2018-05-10T11:52:13.161Z,20.50
2018-05-10T11:54:40.706Z,20.70
2018-05-10T11:57:08.230Z,20.80
2018-05-10T11:59:35.759Z,20.90
2018-05-10T12:02:04.051Z,21.20
2018-05-10T12:04:32.331Z,21.30
2018-05-10T12:06:59.848Z,21.30
2018-05-10T12:09:27.386Z,21.30
2018-05-10T12:11:54.887Z,21.30
2018-05-10T12:14:23.179Z,21.50
2018-05-10T12:16:51.473Z,21.50
2018-05-10T12:19:19.066Z,21.50
2018-05-10T12:21:46.555Z,21.50
2018-05-10T12:24:14.858Z,21.30
2018-05-10T12:26:42.374Z,21.20
2018-05-10T12:29:09.897Z,21.10
2018-05-10T12:31:37.438Z,21.00
2018-05-10T12:34:04.963Z,20.90
2018-05-10T12:36:32.500Z,20.80
2018-05-10T12:39:00.013Z,20.80
2018-05-10T12:41:27.527Z,20.70
2018-05-10T12:43:55.057Z,20.70
2018-05-10T12:46:22.582Z,20.80
2018-05-10T12:48:50.081Z,20.80
2018-05-10T12:51:17.618Z,20.90
2018-05-10T12:53:45.146Z,20.90
2018-05-10T12:56:13.525Z,21.00
2018-05-10T12:58:40.977Z,21.00
2018-05-10T13:01:09.682Z,20.90
2018-05-10T13:03:37.185Z,20.90
2018-05-10T13:06:04.709Z,20.90
2018-05-10T13:08:32.317Z,20.90
2018-05-10T13:10:59.783Z,21.00
2018-05-10T13:13:27.313Z,21.20
2018-05-10T13:15:54.872Z,21.20
2018-05-10T13:18:23.880Z,21.20
2018-05-10T13:20:51.966Z,21.20
2018-05-10T13:23:20.192Z,21.10
2018-05-10T13:25:48.547Z,21.20
2018-05-10T13:28:16.889Z,21.30
2018-05-10T13:30:45.945Z,21.40
2018-05-10T13:33:14.986Z,21.50
2018-05-10T13:35:43.525Z,21.40
2018-05-10T13:38:11.863Z,21.40
2018-05-10T13:40:40.160Z,21.40
2018-05-10T13:43:08.558Z,21.40
2018-05-10T13:45:36.902Z,21.50
2018-05-10T13:48:05.189Z,21.60
2018-05-10T13:50:32.697Z,21.60
2018-05-10T13:53:00.307Z,21.60
2018-05-10T13:55:27.796Z,21.40
2018-05-10T13:57:55.296Z,21.20
2018-05-10T14:00:22.838Z,21.10
2018-05-10T14:02:50.339Z,21.00
2018-05-10T14:05:18.629Z,20.70
2018-05-10T14:07:46.132Z,20.70
2018-05-10T14:10:13.679Z,20.60
2018-05-10T14:12:41.211Z,20.50
2018-05-10T14:15:08.732Z,20.40
2018-05-10T14:17:37.029Z,20.50
2018-05-10T14:20:04.552Z,20.40
2018-05-10T14:22:32.082Z,20.50
2018-05-10T14:24:59.602Z,20.40
2018-05-10T14:27:29.112Z,20.20
2018-05-10T14:29:56.705Z,20.20
2018-05-10T14:32:24.226Z,20.30
2018-05-10T14:34:52.507Z,19.90
2018-05-10T14:37:20.034Z,19.90
2018-05-10T14:39:47.531Z,19.80
2018-05-10T14:42:15.076Z,19.70
2018-05-10T14:44:42.611Z,19.70
2018-05-10T14:47:10.123Z,19.60
2018-05-10T14:49:37.660Z,19.50
2018-05-10T14:52:05.202Z,19.50
2018-05-10T14:54:32.751Z,19.50
2018-05-10T14:57:00.252Z,19.30
2018-05-10T14:59:27.780Z,19.10
2018-05-10T15:01:56.054Z,19.00
2018-05-10T15:04:24.335Z,18.80
2018-05-10T15:06:52.612Z,18.90
2018-05-10T15:09:20.888Z,18.70
2018-05-10T15:11:49.167Z,18.50
2018-05-10T15:14:17.478Z,18.40
2018-05-10T15:16:45.184Z,18.30
2018-05-10T15:19:12.693Z,18.20
2018-05-10T15:21:40.212Z,18.00
2018-05-10T15:24:08.488Z,17.80
2018-05-10T15:26:36.038Z,17.80
2018-05-10T15:29:03.535Z,17.80
2018-05-10T15:31:31.076Z,17.70
2018-05-10T15:33:59.348Z,17.50
2018-05-10T15:36:27.628Z,17.60
2018-05-10T15:38:55.936Z,17.50
2018-05-10T15:41:23.450Z,17.50
2018-05-10T15:43:51.770Z,17.20
2018-05-10T15:46:19.270Z,17.20
2018-05-10T15:48:46.784Z,17.20
2018-05-10T15:51:14.319Z,17.20
2018-05-10T15:53:42.601Z,17.10
2018-05-10T15:56:10.131Z,17.10
2018-05-10T15:58:37.661Z,17.40
2018-05-10T16:01:05.202Z,17.50
2018-05-10T16:03:32.714Z,17.70
2018-05-10T16:06:01.023Z,17.40
2018-05-10T16:08:28.533Z,17.30
2018-05-10T16:10:56.057Z,17.20
2018-05-10T16:13:23.580Z,17.20
2018-05-10T16:15:51.856Z,17.20
2018-05-10T16:18:20.167Z,17.20
2018-05-10T16:20:47.694Z,17.20
2018-05-10T16:23:15.977Z,17.20
2018-05-10T16:25:43.507Z,17.10
2018-05-10T16:28:11.007Z,17.20
2018-05-10T16:30:38.542Z,17.20
2018-05-10T16:33:06.817Z,17.20
2018-05-10T16:35:35.090Z,17.20
2018-05-10T16:38:03.396Z,17.30
2018-05-10T16:40:30.895Z,17.30
2018-05-10T16:42:58.433Z,17.20
2018-05-10T16:45:25.946Z,17.20
2018-05-10T16:47:54.207Z,17.30
2018-05-10T16:50:21.725Z,17.30
2018-05-10T16:52:49.236Z,17.40
2018-05-10T16:55:17.551Z,17.40
2018-05-10T16:57:45.058Z,17.50
2018-05-10T17:00:12.585Z,17.50
2018-05-10T17:02:40.108Z,17.50
2018-05-10T17:05:07.607Z,17.50
2018-05-10T17:07:35.176Z,17.50
2018-05-10T17:10:02.703Z,17.50
2018-05-10T17:12:30.225Z,17.50
2018-05-10T17:14:58.535Z,17.70
2018-05-10T17:17:26.053Z,17.70
2018-05-10T17:19:54.360Z,17.70
2018-05-10T17:22:21.865Z,17.70
2018-05-10T17:24:49.414Z,17.70
2018-05-10T17:27:16.948Z,17.60
2018-05-10T17:29:44.444Z,17.50
2018-05-10T17:32:11.983Z,17.40
2018-05-10T17:34:39.504Z,17.30
2018-05-10T17:37:07.022Z,17.20
2018-05-10T17:39:34.543Z,17.00
2018-05-10T17:42:02.050Z,16.90
2018-05-10T17:44:29.571Z,17.00
2018-05-10T17:46:57.083Z,17.10
2018-05-10T17:49:25.396Z,17.00
2018-05-10T17:51:52.907Z,17.00
2018-05-10T17:54:20.450Z,17.00
2018-05-10T17:56:47.967Z,16.90
2018-05-10T17:59:15.482Z,17.00
2018-05-10T18:01:43.786Z,17.10
2018-05-10T18:04:11.320Z,17.00
2018-05-10T18:06:39.612Z,17.10
2018-05-10T18:09:07.898Z,17.00
2018-05-10T18:11:35.400Z,17.00
2018-05-10T18:14:02.931Z,17.00
2018-05-10T18:16:30.443Z,16.90
2018-05-10T18:18:57.955Z,16.80
2018-05-10T18:21:25.479Z,16.80
2018-05-10T18:23:53.741Z,16.80
2018-05-10T18:26:22.021Z,16.70
2018-05-10T18:28:50.307Z,16.70
2018-05-10T18:31:17.859Z,16.70
2018-05-10T18:33:46.149Z,16.80
2018-05-10T18:36:13.676Z,16.80
2018-05-10T18:38:41.226Z,16.70
2018-05-10T18:41:08.749Z,16.60
2018-05-10T18:43:36.258Z,16.60
2018-05-10T18:46:03.796Z,16.50
2018-05-10T18:48:31.317Z,16.40
2018-05-10T18:50:58.840Z,16.40
2018-05-10T18:53:26.352Z,16.40
2018-05-10T18:55:53.848Z,16.50
2018-05-10T18:58:21.366Z,16.40
2018-05-10T19:00:48.880Z,16.30
2018-05-10T19:03:17.183Z,16.00
2018-05-10T19:05:44.699Z,16.00
2018-05-10T19:08:12.218Z,15.90
2018-05-10T19:10:39.762Z,15.60
2018-05-10T19:13:07.278Z,15.50
2018-05-10T19:15:34.805Z,15.40
2018-05-10T19:18:03.102Z,15.30
2018-05-10T19:20:30.613Z,15.30
2018-05-10T19:22:58.130Z,15.30
2018-05-10T19:25:25.662Z,15.10
2018-05-10T19:27:53.178Z,14.80
2018-05-10T19:30:20.716Z,14.70
2018-05-10T19:32:49.018Z,14.40
2018-05-10T19:35:16.534Z,14.30
2018-05-10T19:37:44.107Z,14.20
2018-05-10T19:40:11.604Z,14.20
2018-05-10T19:42:39.114Z,14.20
2018-05-10T19:45:06.739Z,14.10
2018-05-10T19:47:34.167Z,14.20
2018-05-10T19:50:01.677Z,14.10
2018-05-10T19:52:29.213Z,14.00
2018-05-10T19:54:56.730Z,13.90
2018-05-10T19:57:24.996Z,13.90
2018-05-10T19:59:53.288Z,13.80
2018-05-10T20:02:21.595Z,13.70
2018-05-10T20:04:49.097Z,13.70
2018-05-10T20:07:16.663Z,13.90
2018-05-10T20:09:44.168Z,14.00
2018-05-10T20:12:11.724Z,13.90
2018-05-10T20:14:39.251Z,13.90
2018-05-10T20:17:07.568Z,13.60
2018-05-10T20:19:35.839Z,13.60
2018-05-10T20:22:05.032Z,13.80
2018-05-10T20:24:32.634Z,13.80
2018-05-10T20:27:00.141Z,13.60
2018-05-10T20:29:27.670Z,13.50
2018-05-10T20:31:55.175Z,13.70
2018-05-10T20:34:22.688Z,13.60
2018-05-10T20:36:50.988Z,13.40
2018-05-10T20:39:18.523Z,13.40
2018-05-10T20:41:46.787Z,13.30
2018-05-10T20:44:14.318Z,13.30
2018-05-10T20:46:41.838Z,13.10
2018-05-10T20:49:09.377Z,13.10
2018-05-10T20:51:37.648Z,13.20
2018-05-10T20:54:05.154Z,13.20
2018-05-10T20:56:32.681Z,13.10
2018-05-10T20:59:00.959Z,13.00
2018-05-10T21:01:29.249Z,12.90
2018-05-10T21:03:56.778Z,12.90
2018-05-10T21:06:24.303Z,12.80
2018-05-10T21:08:51.825Z,12.60
2018-05-10T21:11:19.357Z,12.50
2018-05-10T21:13:47.655Z,12.60
2018-05-10T21:16:15.174Z,12.50
2018-05-10T21:18:42.703Z,12.60
2018-05-10T21:21:10.218Z,12.50
2018-05-10T21:23:38.488Z,12.50
2018-05-10T21:26:06.837Z,12.70
2018-05-10T21:28:34.317Z,12.60
2018-05-10T21:31:01.830Z,12.70
2018-05-10T21:33:29.362Z,12.80
2018-05-10T21:35:56.860Z,12.80
2018-05-10T21:38:24.377Z,12.70
2018-05-10T21:40:51.931Z,12.70
2018-05-10T21:43:19.440Z,12.60
2018-05-10T21:45:46.964Z,12.60
2018-05-10T21:48:14.505Z,12.60
2018-05-10T21:50:42.041Z,12.50
2018-05-10T21:53:09.601Z,12.40
2018-05-10T21:55:37.114Z,12.10
2018-05-10T21:58:04.631Z,12.10
2018-05-10T22:00:32.165Z,12.10
2018-05-10T22:02:59.814Z,12.10
2018-05-10T22:05:27.335Z,12.10
2018-05-10T22:07:54.871Z,12.10
2018-05-10T22:10:23.156Z,12.10
2018-05-10T22:12:50.697Z,12.00
2018-05-10T22:15:18.997Z,12.10
2018-05-10T22:17:46.664Z,12.10
2018-05-10T22:20:14.189Z,12.10
2018-05-10T22:22:42.514Z,12.00
2018-05-10T22:25:10.031Z,12.00
2018-05-10T22:27:38.334Z,11.90
2018-05-10T22:30:05.891Z,11.80
2018-05-10T22:32:34.173Z,11.50
2018-05-10T22:35:01.748Z,11.50
2018-05-10T22:37:30.021Z,11.20
2018-05-10T22:39:57.568Z,11.20
2018-05-10T22:42:25.081Z,11.10
2018-05-10T22:44:52.605Z,11.00
2018-05-10T22:47:20.151Z,11.00
2018-05-10T22:49:47.686Z,11.10
2018-05-10T22:52:15.954Z,11.00
2018-05-10T22:54:44.241Z,11.10
2018-05-10T22:57:12.537Z,11.20
2018-05-10T22:59:40.096Z,11.20
2018-05-10T23:02:07.612Z,11.30
2018-05-10T23:04:35.136Z,11.10
2018-05-10T23:07:02.685Z,11.00
2018-05-10T23:09:30.202Z,11.00
2018-05-10T23:11:58.505Z,11.10
2018-05-10T23:14:26.030Z,11.00
2018-05-10T23:16:53.552Z,11.10
2018-05-10T23:19:21.072Z,10.90
2018-05-10T23:21:48.620Z,10.90
2018-05-10T23:24:16.902Z,11.00
2018-05-10T23:26:45.208Z,10.90
2018-05-10T23:29:12.716Z,10.90
2018-05-10T23:31:40.233Z,10.90
2018-05-10T23:34:07.782Z,10.90
2018-05-10T23:36:35.293Z,11.00
2018-05-10T23:39:02.835Z,11.10
2018-05-10T23:41:30.377Z,11.10
2018-05-10T23:43:57.915Z,11.10
2018-05-10T23:46:25.421Z,11.00
2018-05-10T23:48:52.993Z,11.00
2018-05-10T23:51:20.516Z,10.90
2018-05-10T23:53:48.035Z,11.00
2018-05-10T23:56:15.575Z,11.00
2018-05-10T23:58:43.848Z,10.90
